Terminal Aerodrome Forecast
Issued by NWS

Home | Current Version | Previous Version | Text Only | Print | Product List | Glossary Off
Versions: 1 2 3 4 5 6 7 8 9 10 11 12 13 14 15 16 17 18 19 20 21 22 23

000
FTUS41 KCLE 282320
TAFFDY
TAF
KFDY 282320Z 2900/2924 30006KT P6SM SCT060 BKN200
     FM290400 VRB02KT P6SM SCT120 BKN250
     FM290800 16004KT P6SM SCT045 OVC120
     FM291000 16009KT P6SM SCT035 OVC050
      TEMPO 2910/2914 5SM -SHRA BR OVC035
     FM291400 14010KT 6SM -SHRA BR OVC035
     FM291600 12010KT 5SM SHRA BR OVC025=

USA.gov is the U.S. government's official web portal to all federal, state and local government web resources and services.